Time;durP1;ratioP1;P1;durP2;ratioP2;P2;SDS_P1;SDS_P2;PMS_P1;PMS_P2;Temp;Humidity;BMP_temperature;BMP_pressure;BME280_temperature;BME280_humidity;BME280_pressure;Samples;Min_cycle;Max_cycle;Signal;HPM_P1;HPM_P2
2023/06/05 00:01:43;;;;;;;;;0.67;0.67;;;;;23.01;43.93;101549.94;5043951;28;45468;-81
2023/06/05 00:04:09;;;;;;;;;4.00;3.00;;;;;22.98;43.98;101545.50;5036273;28;45493;-78
2023/06/05 00:06:34;;;;;;;;;4.67;3.00;;;;;22.97;44.47;101551.81;5033462;28;45379;-79
2023/06/05 00:09:00;;;;;;;;;2.33;2.33;;;;;22.94;44.42;101538.44;5035919;28;46718;-78
2023/06/05 00:11:26;;;;;;;;;3.00;3.00;;;;;22.89;44.62;101543.06;5030245;28;45497;-78
2023/06/05 00:13:52;;;;;;;;;4.67;3.00;;;;;22.85;44.40;101552.16;5042826;28;45508;-78
2023/06/05 00:16:17;;;;;;;;;2.00;2.00;;;;;22.83;44.29;101548.59;5049283;28;45490;-79
2023/06/05 00:18:43;;;;;;;;;2.00;2.00;;;;;22.81;44.43;101547.78;5052409;28;47318;-77
2023/06/05 00:21:09;;;;;;;;;3.33;3.33;;;;;22.80;44.11;101548.69;5048046;28;45494;-79
2023/06/05 00:23:35;;;;;;;;;4.00;2.00;;;;;22.77;44.70;101551.47;5054511;28;45483;-78
2023/06/05 00:26:00;;;;;;;;;2.00;2.00;;;;;22.74;44.44;101554.22;5051183;28;45697;-77
2023/06/05 00:28:27;;;;;;;;;4.00;2.67;;;;;22.67;44.73;101545.44;5050064;28;69990;-80
2023/06/05 00:30:52;;;;;;;;;4.00;2.00;;;;;22.65;44.29;101543.75;5039153;28;45518;-76
2023/06/05 00:33:17;;;;;;;;;4.00;2.00;;;;;22.63;44.56;101542.88;5054256;28;45358;-77
2023/06/05 00:35:43;;;;;;;;;5.33;2.67;;;;;22.60;44.84;101545.69;5045208;28;61293;-77
2023/06/05 00:38:08;;;;;;;;;3.67;3.00;;;;;22.57;44.80;101546.63;5051364;28;45540;-76
2023/06/05 00:40:33;;;;;;;;;3.00;3.00;;;;;22.56;44.75;101555.63;5053945;28;67751;-81
2023/06/05 00:42:58;;;;;;;;;3.00;3.00;;;;;22.53;44.93;101552.13;5055826;28;62421;-81
2023/06/05 00:45:24;;;;;;;;;2.00;2.00;;;;;22.51;45.00;101556.69;5054386;28;61640;-78
2023/06/05 00:47:49;;;;;;;;;3.00;3.00;;;;;22.47;45.06;101558.56;5054738;28;45451;-80
2023/06/05 00:50:15;;;;;;;;;3.67;2.00;;;;;22.45;45.02;101552.34;5037527;28;45428;-77
2023/06/05 00:52:42;;;;;;;;;4.00;3.33;;;;;22.42;44.90;101555.09;5038191;28;46321;-80
2023/06/05 00:55:08;;;;;;;;;2.67;2.67;;;;;22.38;45.11;101551.63;5055304;28;45569;-76
2023/06/05 00:57:34;;;;;;;;;3.00;2.00;;;;;22.36;45.37;101552.59;5054145;28;46094;-78
2023/06/05 01:00:01;;;;;;;;;2.67;2.67;;;;;22.33;45.31;101545.50;5050736;28;45494;-77
2023/06/05 01:02:28;;;;;;;;;2.00;2.00;;;;;22.30;45.55;101544.69;5053808;28;45481;-76
2023/06/05 01:04:56;;;;;;;;;4.00;3.00;;;;;22.27;45.55;101537.59;5054975;28;45682;-78
2023/06/05 01:07:21;;;;;;;;;3.00;2.00;;;;;22.23;45.76;101542.16;5053669;28;47620;-79
2023/06/05 01:09:47;;;;;;;;;3.00;3.00;;;;;22.19;45.88;101544.97;5027967;28;45434;-77
2023/06/05 01:12:26;;;;;;;;;5.00;3.33;;;;;22.18;45.55;101546.78;5052809;28;63583;-78
2023/06/05 01:14:53;;;;;;;;;5.00;3.00;;;;;22.15;45.56;101548.63;5046661;28;45474;-80
2023/06/05 01:17:24;;;;;;;;;4.00;2.33;;;;;22.11;46.14;101546.97;5038102;28;46727;-79
2023/06/05 01:19:49;;;;;;;;;4.33;2.33;;;;;22.06;46.23;101546.19;5039367;28;45543;-76
2023/06/05 01:22:15;;;;;;;;;3.67;2.00;;;;;22.02;46.00;101549.84;5028756;28;55938;-80
2023/06/05 01:24:41;;;;;;;;;3.00;3.00;;;;;21.99;46.13;101556.19;5049033;28;45541;-79
2023/06/05 01:27:17;;;;;;;;;2.67;2.67;;;;;21.95;46.59;101552.69;5037632;28;72571;-80
2023/06/05 01:29:55;;;;;;;;;4.00;3.00;;;;;21.92;46.41;101555.44;5037541;28;45818;-80
2023/06/05 01:32:25;;;;;;;;;3.00;3.00;;;;;21.89;47.11;101555.53;5040335;28;45713;-78
2023/06/05 01:34:53;;;;;;;;;2.33;2.33;;;;;21.83;46.94;101552.97;5030070;28;45489;-76
2023/06/05 01:37:18;;;;;;;;;3.00;3.00;;;;;21.80;47.10;101554.88;5049111;28;47114;-80
2023/06/05 01:39:46;;;;;;;;;5.33;3.67;;;;;21.76;47.12;101554.06;5029108;28;45475;-78
2023/06/05 01:42:12;;;;;;;;;3.00;3.00;;;;;21.72;47.37;101546.97;5027154;28;46228;-77
2023/06/05 01:44:39;;;;;;;;;4.00;3.33;;;;;21.67;47.71;101551.56;5026704;28;64685;-79
2023/06/05 01:47:05;;;;;;;;;5.00;3.00;;;;;21.66;48.05;101552.50;5036541;28;47324;-77
2023/06/05 01:49:31;;;;;;;;;3.00;3.00;;;;;21.60;48.66;101544.59;5035539;28;45512;-80
2023/06/05 01:51:56;;;;;;;;;3.33;3.33;;;;;21.54;48.40;101545.63;5045163;28;45442;-77
2023/06/05 01:54:23;;;;;;;;;3.00;3.00;;;;;21.52;48.51;101550.16;5024899;28;57778;-79
2023/06/05 01:56:49;;;;;;;;;3.00;2.33;;;;;21.47;48.74;101537.75;5039738;28;46629;-78
2023/06/05 01:59:15;;;;;;;;;5.00;3.00;;;;;21.43;48.90;101542.28;5037003;28;45410;-78
2023/06/05 02:01:43;;;;;;;;;3.33;3.33;;;;;21.41;49.00;101536.03;5045019;28;45419;-81
2023/06/05 02:04:09;;;;;;;;;3.33;3.00;;;;;21.36;49.55;101529.88;5044153;28;45589;-77
2023/06/05 02:06:41;;;;;;;;;3.67;2.33;;;;;21.34;49.37;101538.00;5038308;28;45619;-80
2023/06/05 02:09:08;;;;;;;;;6.00;2.67;;;;;21.31;49.26;101534.50;5035154;28;45488;-77
2023/06/05 02:11:34;;;;;;;;;5.00;5.00;;;;;21.27;49.86;101535.47;5046384;28;45878;-80
2023/06/05 02:13:59;;;;;;;;;4.00;4.00;;;;;21.22;49.74;101530.19;5041063;28;45516;-77
2023/06/05 02:16:25;;;;;;;;;4.33;2.67;;;;;21.19;49.78;101527.56;5051676;28;47548;-78
2023/06/05 02:18:51;;;;;;;;;3.67;3.00;;;;;21.14;50.09;101527.66;5053891;28;45790;-78
2023/06/05 02:21:16;;;;;;;;;6.33;3.00;;;;;21.13;49.91;101525.88;5050482;28;56134;-76
2023/06/05 02:23:43;;;;;;;;;2.33;2.33;;;;;21.09;50.35;101520.59;5056107;28;61545;-77
2023/06/05 02:26:08;;;;;;;;;5.00;5.00;;;;;21.05;50.38;101527.00;5053529;28;47052;-80
2023/06/05 02:28:34;;;;;;;;;7.00;3.33;;;;;21.02;50.13;101527.91;5045936;28;45431;-77
2023/06/05 02:31:01;;;;;;;;;3.00;3.00;;;;;21.00;50.46;101527.09;5027208;28;60630;-78
2023/06/05 02:33:27;;;;;;;;;4.33;3.00;;;;;20.97;50.42;101531.63;5053500;28;45619;-78
2023/06/05 02:35:53;;;;;;;;;4.00;4.00;;;;;20.92;50.62;101520.97;5053451;28;46859;-81
2023/06/05 02:38:18;;;;;;;;;2.67;2.67;;;;;20.92;51.10;101524.53;5053551;28;45351;-81
2023/06/05 02:40:44;;;;;;;;;4.00;2.67;;;;;20.88;50.95;101525.53;5052268;28;45502;-77
2023/06/05 02:43:11;;;;;;;;;5.67;4.67;;;;;20.84;51.77;101521.16;5037664;28;45411;-77
2023/06/05 02:45:36;;;;;;;;;4.33;2.00;;;;;20.85;51.76;101532.75;5052548;28;46582;-79
2023/06/05 02:48:01;;;;;;;;;5.67;4.00;;;;;20.82;52.20;101525.63;5042301;28;64487;-82
2023/06/05 02:50:27;;;;;;;;;7.00;3.33;;;;;20.79;52.33;101530.22;5051518;28;46018;-78
2023/06/05 02:52:52;;;;;;;;;5.00;3.33;;;;;20.74;52.22;101522.25;5056545;28;60740;-79
2023/06/05 02:55:17;;;;;;;;;5.67;3.00;;;;;20.69;52.25;101521.44;5052362;28;45810;-77
2023/06/05 02:57:44;;;;;;;;;5.67;3.00;;;;;20.65;52.18;101514.38;5047131;28;66125;-79
2023/06/05 03:00:16;;;;;;;;;5.00;4.00;;;;;20.63;52.13;101525.13;5047273;28;45388;-77
2023/06/05 03:02:42;;;;;;;;;4.67;3.67;;;;;20.58;53.44;101521.66;5033955;28;45588;-79
2023/06/05 03:05:08;;;;;;;;;4.33;4.33;;;;;20.56;53.14;101517.22;5044534;28;47372;-77
2023/06/05 03:07:34;;;;;;;;;4.00;4.00;;;;;20.51;52.94;101520.03;5050656;28;45414;-77
2023/06/05 03:10:01;;;;;;;;;2.67;2.67;;;;;20.49;53.04;101516.47;5048994;28;45395;-79
2023/06/05 03:12:26;;;;;;;;;5.00;4.00;;;;;20.47;53.73;101520.09;5052594;28;45936;-81
2023/06/05 03:14:51;;;;;;;;;4.33;3.00;;;;;20.43;53.83;101532.66;5030050;28;72488;-80
2023/06/05 03:17:17;;;;;;;;;4.33;4.33;;;;;20.38;53.91;101518.44;5052974;28;45903;-79
2023/06/05 03:19:42;;;;;;;;;4.00;4.00;;;;;20.35;53.85;101516.69;5051778;28;62749;-81
2023/06/05 03:22:08;;;;;;;;;5.00;5.00;;;;;20.33;54.03;101523.88;5045676;28;46570;-80
2023/06/05 03:24:37;;;;;;;;;5.00;5.00;;;;;20.33;54.48;101523.00;5051916;28;47412;-77
2023/06/05 03:27:04;;;;;;;;;3.33;3.33;;;;;20.29;54.26;101518.59;5052439;28;45519;-79
2023/06/05 03:29:29;;;;;;;;;3.67;3.67;;;;;20.27;54.52;101518.63;5052162;28;45421;-81
2023/06/05 03:31:54;;;;;;;;;6.00;5.00;;;;;20.26;54.79;101524.03;5049246;28;61570;-78
2023/06/05 03:34:20;;;;;;;;;4.67;3.67;;;;;20.22;55.08;101528.56;5050912;28;68125;-78
2023/06/05 03:36:45;;;;;;;;;3.33;3.33;;;;;20.21;55.09;101525.91;5050853;28;66007;-77
2023/06/05 03:39:11;;;;;;;;;4.00;4.00;;;;;20.18;55.36;101526.81;5052483;28;45427;-77
2023/06/05 03:41:37;;;;;;;;;5.00;5.00;;;;;20.13;55.81;101518.91;5049027;28;46005;-77
2023/06/05 03:44:03;;;;;;;;;4.00;4.00;;;;;20.12;55.97;101524.25;5051703;28;60037;-79
2023/06/05 03:46:29;;;;;;;;;4.00;3.00;;;;;20.09;55.78;101524.34;5052198;28;45920;-76
2023/06/05 03:48:58;;;;;;;;;6.33;4.33;;;;;20.07;56.14;101526.13;5052315;28;45516;-78
2023/06/05 03:51:29;;;;;;;;;3.67;3.67;;;;;20.05;56.75;101518.13;5049253;28;45602;-81
2023/06/05 03:53:55;;;;;;;;;9.00;5.33;;;;;20.03;56.98;101516.41;5052080;28;46441;-76
2023/06/05 03:56:21;;;;;;;;;6.67;5.00;;;;;20.02;57.14;101526.22;5050655;28;45443;-81
2023/06/05 03:58:48;;;;;;;;;6.33;4.33;;;;;20.01;56.83;101528.94;5052641;28;45424;-79
2023/06/05 04:01:14;;;;;;;;;5.33;3.67;;;;;19.97;57.37;101525.41;5045152;28;45626;-80
2023/06/05 04:03:39;;;;;;;;;4.00;4.00;;;;;19.97;57.53;101535.25;5052064;28;47288;-79
2023/06/05 04:06:05;;;;;;;;;5.33;5.33;;;;;19.96;57.70;101528.13;5051963;28;45487;-77
2023/06/05 04:08:31;;;;;;;;;3.00;2.67;;;;;19.93;57.47;101533.53;5026296;28;45428;-77
2023/06/05 04:10:57;;;;;;;;;4.33;4.00;;;;;19.88;58.26;101529.13;5048541;28;45574;-79
2023/06/05 04:13:22;;;;;;;;;10.00;7.00;;;;;19.87;58.12;101529.16;5036912;28;45643;-76
2023/06/05 04:15:48;;;;;;;;;6.33;5.67;;;;;19.84;58.35;101523.84;5055138;28;56492;-77
2023/06/05 04:18:14;;;;;;;;;10.00;7.33;;;;;19.81;58.79;101535.47;5055885;28;45605;-77
2023/06/05 04:20:40;;;;;;;;;7.67;7.67;;;;;19.78;58.96;101538.22;5055493;28;45466;-78
2023/06/05 04:23:05;;;;;;;;;4.33;4.33;;;;;19.76;58.94;101534.72;5049957;28;62819;-77
2023/06/05 04:25:30;;;;;;;;;7.00;5.00;;;;;19.75;58.78;101537.38;5035495;28;68679;-76
2023/06/05 04:27:57;;;;;;;;;5.67;4.33;;;;;19.75;59.69;101546.31;5055382;28;46079;-77
2023/06/05 04:30:22;;;;;;;;;7.00;7.00;;;;;19.75;59.71;101543.63;5055512;28;45544;-81
2023/06/05 04:32:54;;;;;;;;;7.33;5.67;;;;;19.73;60.25;101548.13;5034358;28;71276;-79
2023/06/05 04:35:20;;;;;;;;;8.33;5.33;;;;;19.74;60.21;101547.22;5054189;28;45526;-79
2023/06/05 04:37:46;;;;;;;;;5.67;5.00;;;;;19.74;60.58;101547.22;5055538;28;45360;-80
2023/06/05 04:40:11;;;;;;;;;9.00;7.33;;;;;19.73;60.27;101537.41;5055282;28;45326;-76
2023/06/05 04:42:37;;;;;;;;;5.33;4.00;;;;;19.73;60.73;101540.09;5051356;28;63659;-76
2023/06/05 04:45:05;;;;;;;;;6.33;6.33;;;;;19.73;61.12;101549.94;5054612;28;45516;-78
2023/06/05 04:47:31;;;;;;;;;5.67;5.67;;;;;19.73;61.38;101555.28;5034997;28;45456;-77
2023/06/05 04:50:03;;;;;;;;;6.00;6.00;;;;;19.73;61.99;101555.28;5054856;28;45610;-77
2023/06/05 04:52:29;;;;;;;;;7.33;7.33;;;;;19.70;61.81;101563.38;5051692;28;46456;-81
2023/06/05 04:54:54;;;;;;;;;8.00;6.00;;;;;19.69;61.68;101554.44;5054901;28;45600;-78
2023/06/05 04:57:20;;;;;;;;;9.00;8.33;;;;;19.67;62.41;101558.94;5052210;28;66280;-77
2023/06/05 04:59:45;;;;;;;;;10.33;7.67;;;;;19.64;62.32;101553.63;5054021;28;51467;-76
2023/06/05 05:02:12;;;;;;;;;9.67;8.00;;;;;19.68;62.66;101554.47;5035411;28;46660;-76
2023/06/05 05:04:37;;;;;;;;;12.00;9.00;;;;;19.67;62.90;101550.91;5028795;28;45504;-78
2023/06/05 05:07:03;;;;;;;;;10.33;8.33;;;;;19.68;63.58;101557.16;5054397;28;45467;-78
2023/06/05 05:09:29;;;;;;;;;12.00;8.67;;;;;19.65;63.50;101550.03;5055091;28;45805;-77
2023/06/05 05:11:54;;;;;;;;;9.33;8.33;;;;;19.65;64.13;101559.88;5051468;28;46263;-77
2023/06/05 05:14:20;;;;;;;;;11.67;8.33;;;;;19.65;63.94;101550.03;5053844;28;63746;-78
2023/06/05 05:16:46;;;;;;;;;11.00;9.00;;;;;19.62;63.64;101556.34;5054405;28;45419;-77
2023/06/05 05:19:11;;;;;;;;;7.00;7.00;;;;;19.65;64.37;101558.06;5035794;28;45447;-76
2023/06/05 05:21:37;;;;;;;;;12.33;6.33;;;;;19.69;64.57;101557.13;5049173;28;45673;-80
2023/06/05 05:24:03;;;;;;;;;7.33;6.67;;;;;19.68;64.30;101555.34;5054400;28;45399;-76
2023/06/05 05:26:28;;;;;;;;;7.00;7.00;;;;;19.70;65.34;101550.84;5053383;28;45450;-76
2023/06/05 05:28:53;;;;;;;;;9.33;7.67;;;;;19.69;64.89;101562.47;5054611;28;45464;-79
2023/06/05 05:31:19;;;;;;;;;8.33;8.33;;;;;19.72;64.80;101551.72;5049853;28;70624;-79
2023/06/05 05:33:44;;;;;;;;;9.67;6.33;;;;;19.76;65.07;101560.59;5054335;28;45659;-78
2023/06/05 05:36:10;;;;;;;;;10.33;7.00;;;;;19.77;65.31;101555.22;5051645;28;59876;-78
2023/06/05 05:38:35;;;;;;;;;8.00;7.00;;;;;19.79;65.65;101561.44;5048846;28;45666;-76
2023/06/05 05:41:00;;;;;;;;;12.33;8.00;;;;;19.81;65.53;101558.72;5047708;28;71409;-80
2023/06/05 05:43:26;;;;;;;;;7.00;7.00;;;;;19.82;65.69;101556.03;5051596;28;45575;-77
2023/06/05 05:45:51;;;;;;;;;8.67;8.33;;;;;19.84;65.62;101564.94;5051701;28;45446;-76
2023/06/05 05:48:17;;;;;;;;;11.67;9.33;;;;;19.85;66.07;101564.00;5051132;28;64787;-76
2023/06/05 05:50:42;;;;;;;;;6.67;6.67;;;;;19.84;66.02;101562.25;5054959;28;46488;-78
2023/06/05 05:53:08;;;;;;;;;11.67;7.33;;;;;19.88;65.95;101569.34;5052640;28;65647;-75
2023/06/05 05:55:33;;;;;;;;;9.67;9.67;;;;;19.89;66.17;101571.09;5046038;28;45885;-75
2023/06/05 05:57:58;;;;;;;;;8.33;8.33;;;;;19.89;66.60;101567.53;5053036;28;60871;-76
2023/06/05 06:00:24;;;;;;;;;9.67;9.00;;;;;19.87;66.34;101564.91;5053547;28;49074;-77
2023/06/05 06:02:51;;;;;;;;;9.67;8.33;;;;;19.89;67.03;101565.75;5050210;28;45500;-74
2023/06/05 06:05:18;;;;;;;;;11.00;8.00;;;;;19.86;67.22;101567.56;5050920;28;45741;-76
2023/06/05 06:07:43;;;;;;;;;7.33;7.00;;;;;19.81;67.21;101573.00;5029639;28;45479;-74
2023/06/05 06:10:09;;;;;;;;;7.33;7.33;;;;;19.80;68.22;101576.59;5048780;28;45663;-76
2023/06/05 06:12:35;;;;;;;;;8.33;8.00;;;;;19.76;69.42;101588.31;5048081;28;47242;-79
2023/06/05 06:15:00;;;;;;;;;8.33;7.67;;;;;19.72;68.95;101580.31;5047947;28;59744;-78
2023/06/05 06:17:27;;;;;;;;;10.00;8.33;;;;;19.68;69.80;101590.19;5031530;28;45405;-81
2023/06/05 06:19:52;;;;;;;;;11.00;9.33;;;;;19.65;69.99;101592.91;5031722;28;46571;-81
2023/06/05 06:22:18;;;;;;;;;9.33;8.00;;;;;19.61;69.74;101585.84;5010102;28;45584;-81
2023/06/05 06:24:43;;;;;;;;;11.00;6.00;;;;;19.60;70.60;101587.63;5033440;28;45534;-79
2023/06/05 06:27:10;;;;;;;;;6.67;5.67;;;;;19.57;70.47;101584.06;5051616;28;45475;-78
2023/06/05 06:29:36;;;;;;;;;8.00;8.00;;;;;19.55;71.93;101583.22;5049007;28;46597;-79
2023/06/05 06:32:02;;;;;;;;;10.67;7.33;;;;;19.54;73.24;101578.75;5011245;28;45595;-78
2023/06/05 06:34:29;;;;;;;;;11.00;8.67;;;;;19.56;72.79;101588.53;5051090;28;52630;-78
2023/06/05 06:36:55;;;;;;;;;10.00;7.33;;;;;19.56;73.38;101588.53;5050151;28;45550;-78
2023/06/05 06:39:22;;;;;;;;;11.00;9.67;;;;;19.55;73.53;101589.47;5050656;28;47281;-77
2023/06/05 06:41:47;;;;;;;;;9.33;7.67;;;;;19.54;72.99;101587.66;5049624;28;45568;-79
2023/06/05 06:44:12;;;;;;;;;6.67;5.67;;;;;19.55;73.55;101588.56;5049284;28;46643;-83
2023/06/05 06:46:38;;;;;;;;;7.33;7.33;;;;;19.62;72.98;101585.81;5010516;28;63023;-79
2023/06/05 06:49:04;;;;;;;;;11.67;7.67;;;;;19.65;73.35;101583.97;5047155;28;47129;-79
2023/06/05 06:51:29;;;;;;;;;9.33;7.33;;;;;19.67;73.59;101583.06;5042779;28;45435;-79
2023/06/05 06:53:55;;;;;;;;;9.00;8.33;;;;;19.72;73.72;101586.56;5049547;28;45648;-79
2023/06/05 06:56:21;;;;;;;;;7.00;6.67;;;;;19.72;73.12;101581.19;5051216;28;45514;-78
2023/06/05 06:58:46;;;;;;;;;7.67;7.00;;;;;19.76;73.29;101590.97;5027889;28;47360;-79
2023/06/05 07:01:13;;;;;;;;;8.00;8.00;;;;;19.76;72.67;101582.94;5047279;28;45444;-77
2023/06/05 07:03:40;;;;;;;;;9.33;8.00;;;;;19.82;73.02;101587.31;5050794;28;45547;-78
2023/06/05 07:06:06;;;;;;;;;8.00;7.00;;;;;19.83;72.77;101581.03;5048859;28;45779;-81
2023/06/05 07:08:32;;;;;;;;;7.33;7.33;;;;;19.91;73.30;101581.78;5050453;28;46582;-79
2023/06/05 07:10:57;;;;;;;;;11.67;9.33;;;;;19.94;73.27;101583.56;5024235;28;45775;-80
2023/06/05 07:13:23;;;;;;;;;8.00;8.00;;;;;19.96;72.43;101579.94;5052816;28;45648;-82
2023/06/05 07:15:49;;;;;;;;;13.33;7.67;;;;;20.01;72.63;101588.78;5032762;28;45629;-84
2023/06/05 07:18:16;;;;;;;;;13.67;8.00;;;;;20.03;72.55;101584.31;5017284;28;48473;-81
2023/06/05 07:20:42;;;;;;;;;7.00;7.00;;;;;20.05;73.21;101587.84;5016386;28;45814;-80
2023/06/05 07:23:07;;;;;;;;;8.67;7.00;;;;;20.02;73.29;101592.34;5048586;28;45476;-84
2023/06/05 07:25:32;;;;;;;;;7.67;7.67;;;;;20.03;73.79;101586.97;5051682;28;50474;-82
2023/06/05 07:27:59;;;;;;;;;10.33;9.33;;;;;20.06;72.95;101581.56;5049611;28;46337;-77
2023/06/05 07:30:28;;;;;;;;;9.67;7.00;;;;;20.14;75.14;101586.81;5050600;28;45445;-78
2023/06/05 07:32:53;;;;;;;;;14.33;9.67;;;;;20.15;73.74;101591.25;5047122;28;45490;-78
2023/06/05 07:35:19;;;;;;;;;8.33;7.33;;;;;20.21;73.46;101593.84;5031926;28;49070;-79
2023/06/05 07:37:44;;;;;;;;;9.33;7.00;;;;;20.24;73.36;101585.75;5048880;28;46663;-78
2023/06/05 07:40:10;;;;;;;;;11.00;7.67;;;;;20.26;72.34;101591.06;5051639;28;45850;-79
2023/06/05 07:42:35;;;;;;;;;13.67;9.33;;;;;20.29;72.30;101586.53;5047720;28;45417;-77
2023/06/05 07:45:01;;;;;;;;;9.67;8.00;;;;;20.37;71.66;101594.47;5051529;28;45536;-77
2023/06/05 07:47:27;;;;;;;;;7.00;7.00;;;;;20.45;71.49;101595.19;5050115;28;45720;-76
2023/06/05 07:49:59;;;;;;;;;7.67;7.00;;;;;20.52;71.24;101579.94;5046157;28;45549;-76
2023/06/05 07:52:25;;;;;;;;;7.67;7.00;;;;;20.61;70.64;101582.41;5048182;28;45502;-77
2023/06/05 07:54:50;;;;;;;;;10.00;6.00;;;;;20.72;70.48;101593.88;5051769;28;45521;-76
2023/06/05 07:57:16;;;;;;;;;8.67;7.00;;;;;20.78;70.52;101576.75;5050263;28;46707;-77
2023/06/05 07:59:42;;;;;;;;;7.00;6.33;;;;;20.87;70.44;101585.50;5050716;28;45489;-78
2023/06/05 08:02:07;;;;;;;;;4.33;4.00;;;;;20.93;69.74;101585.41;5045083;28;45608;-80
2023/06/05 08:04:33;;;;;;;;;8.00;5.00;;;;;21.00;70.05;101591.53;5045004;28;46609;-77
2023/06/05 08:06:59;;;;;;;;;10.33;5.33;;;;;21.08;69.59;101586.88;5049533;28;47439;-80
2023/06/05 08:09:24;;;;;;;;;10.00;7.00;;;;;21.15;69.50;101577.78;5042042;28;58496;-79
2023/06/05 08:11:49;;;;;;;;;7.00;7.00;;;;;21.21;68.82;101576.78;5046968;28;45522;-78
2023/06/05 08:16:45;;;;;;;;;6.33;6.00;;;;;21.39;69.04;101581.75;4990781;28;46052;-78
2023/06/05 08:19:10;;;;;;;;;6.00;6.00;;;;;21.44;69.07;101569.13;4970545;28;45469;-81
2023/06/05 08:21:36;;;;;;;;;8.33;6.00;;;;;21.53;68.67;101575.22;4987697;28;59812;-79
2023/06/05 08:24:02;;;;;;;;;7.00;5.67;;;;;21.60;68.05;101571.47;4989687;28;46589;-79
2023/06/05 08:26:28;;;;;;;;;10.00;9.67;;;;;21.66;67.47;101571.31;4989085;28;46399;-79
2023/06/05 08:28:53;;;;;;;;;6.00;5.00;;;;;21.72;66.77;101573.84;4987057;28;67026;-79
2023/06/05 08:31:18;;;;;;;;;5.00;5.00;;;;;21.78;66.95;101573.72;4987356;28;65684;-78
2023/06/05 08:33:44;;;;;;;;;7.00;6.00;;;;;21.84;66.72;101567.31;4994202;28;45715;-78
2023/06/05 08:36:09;;;;;;;;;9.00;6.00;;;;;21.88;66.94;101577.94;4990307;28;52331;-79
2023/06/05 08:38:35;;;;;;;;;7.33;7.33;;;;;21.93;66.57;101572.47;4973178;28;45460;-80
2023/06/05 08:41:07;;;;;;;;;9.67;7.00;;;;;21.97;66.63;101569.66;4990047;28;47234;-79
2023/06/05 08:43:47;;;;;;;;;8.33;6.00;;;;;22.02;65.62;101571.38;4990566;28;45492;-79
2023/06/05 08:46:12;;;;;;;;;7.00;7.00;;;;;22.04;65.74;101573.09;4988894;28;46521;-77
2023/06/05 08:48:45;;;;;;;;;11.00;8.00;;;;;22.07;66.04;101577.53;4991311;28;45480;-80
2023/06/05 08:51:12;;;;;;;;;5.67;5.67;;;;;22.11;65.64;101573.88;4989202;28;45457;-78
2023/06/05 08:53:40;;;;;;;;;8.00;6.00;;;;;22.12;64.89;101565.75;4988767;28;45550;-80
2023/06/05 08:56:07;;;;;;;;;8.33;6.00;;;;;22.16;64.83;101569.25;4988161;28;46481;-78
2023/06/05 08:58:34;;;;;;;;;10.33;7.00;;;;;22.18;64.99;101570.09;4990128;28;45799;-83
2023/06/05 09:01:00;;;;;;;;;1.33;1.00;;;;;22.24;64.59;101575.31;4990832;28;45588;-79
2023/06/05 09:03:25;;;;;;;;;5.00;5.00;;;;;22.26;64.38;101584.22;4993087;28;58457;-78
2023/06/05 09:05:52;;;;;;;;;7.67;5.67;;;;;22.31;64.62;101566.16;4992248;28;68351;-78
2023/06/05 09:08:19;;;;;;;;;9.00;6.33;;;;;22.38;64.33;101559.72;4993675;28;46818;-78
2023/06/05 09:10:44;;;;;;;;;6.00;4.33;;;;;22.46;64.08;101570.25;4989575;28;45515;-81
2023/06/05 09:13:09;;;;;;;;;7.00;6.00;;;;;22.49;63.88;101565.69;4993305;28;45537;-78
2023/06/05 09:15:35;;;;;;;;;5.00;5.00;;;;;22.56;63.76;101568.22;4985937;28;47477;-77
2023/06/05 09:18:07;;;;;;;;;7.67;7.67;;;;;22.61;63.13;101563.59;4978786;28;45544;-78
2023/06/05 09:20:34;;;;;;;;;6.33;6.33;;;;;22.64;63.06;101563.50;4975167;28;45488;-78
2023/06/05 09:23:03;;;;;;;;;4.67;4.67;;;;;22.73;63.41;101568.63;4976954;28;46842;-78
2023/06/05 09:25:50;;;;;;;;;5.33;5.33;;;;;22.81;63.20;101565.72;4976319;28;47193;-77
2023/06/05 09:28:17;;;;;;;;;6.00;5.67;;;;;22.86;62.75;101559.28;4969657;28;45535;-80
2023/06/05 09:30:58;;;;;;;;;8.00;7.00;;;;;22.95;63.29;101558.16;4973204;28;45441;-74
2023/06/05 09:33:25;;;;;;;;;7.67;7.67;;;;;22.99;62.59;101560.72;4973697;28;45487;-78
2023/06/05 09:36:10;;;;;;;;;7.00;6.00;;;;;23.03;62.01;101558.84;4972904;28;48252;-78
2023/06/05 09:38:37;;;;;;;;;9.33;7.00;;;;;23.09;62.11;101555.06;4974320;28;45477;-78
2023/06/05 09:41:10;;;;;;;;;8.67;7.67;;;;;23.15;62.17;101558.47;4972976;28;45591;-76
2023/06/05 09:43:38;;;;;;;;;7.00;6.00;;;;;23.20;62.13;101545.75;4978754;28;45560;-75
2023/06/05 09:46:09;;;;;;;;;13.00;7.00;;;;;23.24;61.95;101551.94;4973120;28;47439;-76
2023/06/05 09:48:36;;;;;;;;;5.00;5.00;;;;;23.30;62.13;101550.84;4956499;28;45616;-77
2023/06/05 09:51:15;;;;;;;;;6.00;6.00;;;;;23.36;61.35;101550.66;4970421;28;45453;-78
2023/06/05 09:53:43;;;;;;;;;5.33;5.33;;;;;23.42;60.71;101545.09;4977822;28;45551;-80
2023/06/05 09:56:15;;;;;;;;;6.33;5.33;;;;;23.45;60.11;101534.22;4972167;28;47946;-76
2023/06/05 09:58:51;;;;;;;;;8.00;5.33;;;;;23.51;59.74;101534.91;4968606;28;45466;-77
2023/06/05 10:01:22;;;;;;;;;7.00;7.00;;;;;23.57;59.20;101535.66;4971650;28;45677;-75
2023/06/05 10:03:53;;;;;;;;;6.67;6.67;;;;;23.61;59.07;101523.84;4972901;28;45654;-76
2023/06/05 10:06:23;;;;;;;;;9.67;7.67;;;;;23.66;58.91;101530.00;4955493;28;47833;-77
2023/06/05 10:08:49;;;;;;;;;8.00;5.00;;;;;23.74;58.18;101526.09;4972539;28;45595;-81
2023/06/05 10:11:16;;;;;;;;;6.67;6.67;;;;;23.81;57.93;101520.50;4970154;28;45622;-82
2023/06/05 10:13:42;;;;;;;;;9.00;5.67;;;;;23.86;57.79;101519.41;4977336;28;45469;-75
2023/06/05 10:16:07;;;;;;;;;9.00;5.33;;;;;23.91;57.64;101516.56;4953627;28;69779;-82
2023/06/05 10:18:33;;;;;;;;;8.00;7.00;;;;;24.01;57.50;101523.41;4970406;28;52245;-75
2023/06/05 10:20:58;;;;;;;;;5.00;5.00;;;;;24.09;57.31;101523.19;4968847;28;49815;-77
2023/06/05 10:23:25;;;;;;;;;6.33;5.00;;;;;24.13;56.92;101523.03;4971011;28;64819;-79
2023/06/05 10:25:51;;;;;;;;;7.00;7.00;;;;;24.21;56.83;101511.94;4972637;28;46733;-78
2023/06/05 10:28:38;;;;;;;;;7.67;5.00;;;;;24.30;56.85;101519.75;4954228;28;67978;-75
2023/06/05 10:31:20;;;;;;;;;5.00;5.00;;;;;24.37;56.47;101521.31;4969888;28;46715;-77
2023/06/05 10:34:04;;;;;;;;;6.00;6.00;;;;;24.43;55.36;101510.28;4972588;28;45926;-78
2023/06/05 10:37:05;;;;;;;;;6.00;6.00;;;;;24.47;55.55;101511.94;4972407;28;46579;-78
2023/06/05 10:39:33;;;;;;;;;6.00;6.00;;;;;24.54;54.19;101526.97;4972218;28;45928;-82
2023/06/05 10:41:58;;;;;;;;;6.00;5.00;;;;;24.63;53.69;101520.38;4971627;28;47129;-78
2023/06/05 10:44:42;;;;;;;;;5.00;5.00;;;;;24.71;54.12;101511.97;4973472;28;45457;-80
2023/06/05 10:47:47;;;;;;;;;7.00;5.00;;;;;24.80;53.73;101522.44;4971583;28;47530;-77
2023/06/05 10:50:15;;;;;;;;;7.67;6.33;;;;;24.88;53.44;101517.66;4971410;28;45492;-75
2023/06/05 10:52:40;;;;;;;;;9.67;6.00;;;;;24.95;53.37;101510.19;4968523;28;45430;-78
2023/06/05 10:55:07;;;;;;;;;9.33;7.00;;;;;25.01;53.70;101504.56;4971099;28;60139;-79
2023/06/05 10:58:04;;;;;;;;;6.00;6.00;;;;;25.07;53.52;101505.22;4971518;28;46685;-78
2023/06/05 11:00:30;;;;;;;;;6.00;6.00;;;;;25.14;53.70;101513.09;4968083;28;45555;-77
2023/06/05 11:02:56;;;;;;;;;5.33;5.33;;;;;25.22;53.53;101497.47;4971620;28;45604;-78
2023/06/05 11:05:21;;;;;;;;;6.00;6.00;;;;;25.25;53.55;101492.84;4971502;28;45607;-74
2023/06/05 11:07:47;;;;;;;;;5.33;5.33;;;;;25.34;53.29;101484.31;4973659;28;46601;-76
2023/06/05 11:10:20;;;;;;;;;6.00;6.00;;;;;25.41;53.05;101492.19;4972305;28;70806;-78
2023/06/05 11:12:45;;;;;;;;;10.00;7.67;;;;;25.49;52.22;101490.94;4971842;28;45539;-78
2023/06/05 11:15:10;;;;;;;;;6.67;5.67;;;;;25.58;51.95;101481.59;4975426;28;45484;-80
2023/06/05 11:17:39;;;;;;;;;7.00;5.67;;;;;25.66;51.91;101482.13;4977649;28;46480;-77
2023/06/05 11:20:09;;;;;;;;;7.00;5.00;;;;;25.74;50.98;101479.13;4962370;28;45600;-78
2023/06/05 11:22:53;;;;;;;;;6.33;6.33;;;;;25.82;50.41;101479.69;4972454;28;45570;-80
2023/06/05 11:25:24;;;;;;;;;5.00;5.00;;;;;25.90;50.38;101466.75;4972611;28;45669;-80
2023/06/05 11:28:01;;;;;;;;;6.00;6.00;;;;;26.01;49.21;101469.00;4973054;28;47323;-78